sensor_id;sensor_type;location;lat;lon;timestamp;temperature;humidity
8792;DHT22;4432;50.890;4.744;2023-04-06T00:01:07;1.80;99.90
8792;DHT22;4432;50.890;4.744;2023-04-06T00:03:34;1.80;99.90
8792;DHT22;4432;50.890;4.744;2023-04-06T00:05:59;1.80;99.90
8792;DHT22;4432;50.890;4.744;2023-04-06T00:08:26;1.80;99.90
8792;DHT22;4432;50.890;4.744;2023-04-06T00:10:52;1.80;99.90
8792;DHT22;4432;50.890;4.744;2023-04-06T00:13:18;1.80;99.90
8792;DHT22;4432;50.890;4.744;2023-04-06T00:15:44;1.80;99.90
8792;DHT22;4432;50.890;4.744;2023-04-06T00:18:10;1.80;99.90
8792;DHT22;4432;50.890;4.744;2023-04-06T00:20:35;1.70;99.90
8792;DHT22;4432;50.890;4.744;2023-04-06T00:23:01;1.70;99.90
8792;DHT22;4432;50.890;4.744;2023-04-06T00:25:27;1.70;99.90
8792;DHT22;4432;50.890;4.744;2023-04-06T00:27:53;1.70;99.90
8792;DHT22;4432;50.890;4.744;2023-04-06T00:30:19;1.70;99.90
8792;DHT22;4432;50.890;4.744;2023-04-06T00:32:45;1.70;99.90
8792;DHT22;4432;50.890;4.744;2023-04-06T00:35:10;1.70;99.90
8792;DHT22;4432;50.890;4.744;2023-04-06T00:37:36;1.60;99.90
8792;DHT22;4432;50.890;4.744;2023-04-06T00:40:02;1.60;99.90
8792;DHT22;4432;50.890;4.744;2023-04-06T00:42:28;1.60;99.90
8792;DHT22;4432;50.890;4.744;2023-04-06T00:44:57;1.70;99.90
8792;DHT22;4432;50.890;4.744;2023-04-06T00:47:24;1.80;99.90
8792;DHT22;4432;50.890;4.744;2023-04-06T00:49:54;1.80;99.90
8792;DHT22;4432;50.890;4.744;2023-04-06T00:52:21;1.80;99.90
8792;DHT22;4432;50.890;4.744;2023-04-06T00:54:47;1.70;99.90
8792;DHT22;4432;50.890;4.744;2023-04-06T00:57:13;1.70;99.90
8792;DHT22;4432;50.890;4.744;2023-04-06T00:59:39;1.80;99.90
8792;DHT22;4432;50.890;4.744;2023-04-06T01:02:05;1.90;99.90
8792;DHT22;4432;50.890;4.744;2023-04-06T01:04:31;1.90;99.90
8792;DHT22;4432;50.890;4.744;2023-04-06T01:06:58;1.90;99.90
8792;DHT22;4432;50.890;4.744;2023-04-06T01:09:23;1.90;99.90
8792;DHT22;4432;50.890;4.744;2023-04-06T01:11:49;1.90;99.90
8792;DHT22;4432;50.890;4.744;2023-04-06T01:14:15;2.00;99.90
8792;DHT22;4432;50.890;4.744;2023-04-06T01:16:42;2.00;99.90
8792;DHT22;4432;50.890;4.744;2023-04-06T01:19:09;2.10;99.90
8792;DHT22;4432;50.890;4.744;2023-04-06T01:21:36;2.20;99.90
8792;DHT22;4432;50.890;4.744;2023-04-06T01:24:02;2.20;99.90
8792;DHT22;4432;50.890;4.744;2023-04-06T01:26:28;2.20;99.90
8792;DHT22;4432;50.890;4.744;2023-04-06T01:28:55;2.20;99.90
8792;DHT22;4432;50.890;4.744;2023-04-06T01:31:21;2.30;99.90
8792;DHT22;4432;50.890;4.744;2023-04-06T01:33:47;2.30;99.90
8792;DHT22;4432;50.890;4.744;2023-04-06T01:36:13;2.40;99.90
8792;DHT22;4432;50.890;4.744;2023-04-06T01:38:39;2.50;99.90
8792;DHT22;4432;50.890;4.744;2023-04-06T01:41:05;2.50;99.90
8792;DHT22;4432;50.890;4.744;2023-04-06T01:43:31;2.50;99.90
8792;DHT22;4432;50.890;4.744;2023-04-06T01:45:57;2.50;99.90
8792;DHT22;4432;50.890;4.744;2023-04-06T01:48:23;2.60;99.90
8792;DHT22;4432;50.890;4.744;2023-04-06T01:50:48;2.60;99.90
8792;DHT22;4432;50.890;4.744;2023-04-06T01:53:14;2.70;99.90
8792;DHT22;4432;50.890;4.744;2023-04-06T01:55:41;2.80;99.90
8792;DHT22;4432;50.890;4.744;2023-04-06T01:58:06;2.80;99.90
8792;DHT22;4432;50.890;4.744;2023-04-06T02:00:32;2.90;99.90
8792;DHT22;4432;50.890;4.744;2023-04-06T02:02:58;2.90;99.90
8792;DHT22;4432;50.890;4.744;2023-04-06T02:05:25;3.00;99.90
8792;DHT22;4432;50.890;4.744;2023-04-06T02:07:51;2.90;99.90
8792;DHT22;4432;50.890;4.744;2023-04-06T02:10:17;3.00;99.90
8792;DHT22;4432;50.890;4.744;2023-04-06T02:12:43;3.00;99.90
8792;DHT22;4432;50.890;4.744;2023-04-06T02:15:09;3.00;99.90
8792;DHT22;4432;50.890;4.744;2023-04-06T02:17:35;3.00;99.90
8792;DHT22;4432;50.890;4.744;2023-04-06T02:20:01;3.00;99.90
8792;DHT22;4432;50.890;4.744;2023-04-06T02:22:26;3.10;99.90
8792;DHT22;4432;50.890;4.744;2023-04-06T02:24:52;3.10;99.90
8792;DHT22;4432;50.890;4.744;2023-04-06T02:27:18;3.20;99.90
8792;DHT22;4432;50.890;4.744;2023-04-06T02:29:43;3.20;99.90
8792;DHT22;4432;50.890;4.744;2023-04-06T02:32:09;3.20;99.90
8792;DHT22;4432;50.890;4.744;2023-04-06T02:34:35;3.30;99.90
8792;DHT22;4432;50.890;4.744;2023-04-06T02:37:00;3.30;99.90
8792;DHT22;4432;50.890;4.744;2023-04-06T02:39:27;3.30;99.90
8792;DHT22;4432;50.890;4.744;2023-04-06T02:41:52;3.30;99.90
8792;DHT22;4432;50.890;4.744;2023-04-06T02:44:18;3.40;99.90
8792;DHT22;4432;50.890;4.744;2023-04-06T02:46:44;3.50;99.90
8792;DHT22;4432;50.890;4.744;2023-04-06T02:49:10;3.50;99.90
8792;DHT22;4432;50.890;4.744;2023-04-06T02:51:35;3.50;99.90
8792;DHT22;4432;50.890;4.744;2023-04-06T02:54:03;3.50;99.90
8792;DHT22;4432;50.890;4.744;2023-04-06T02:56:28;3.40;99.90
8792;DHT22;4432;50.890;4.744;2023-04-06T02:58:54;3.30;99.90
8792;DHT22;4432;50.890;4.744;2023-04-06T03:01:20;3.40;99.90
8792;DHT22;4432;50.890;4.744;2023-04-06T03:03:46;3.40;99.90
8792;DHT22;4432;50.890;4.744;2023-04-06T03:06:11;3.40;99.90
8792;DHT22;4432;50.890;4.744;2023-04-06T03:08:37;3.40;99.90
8792;DHT22;4432;50.890;4.744;2023-04-06T03:11:03;3.40;99.90
8792;DHT22;4432;50.890;4.744;2023-04-06T03:13:29;3.50;99.90
8792;DHT22;4432;50.890;4.744;2023-04-06T03:15:55;3.50;99.90
8792;DHT22;4432;50.890;4.744;2023-04-06T03:18:22;3.50;99.90
8792;DHT22;4432;50.890;4.744;2023-04-06T03:20:51;3.50;99.90
8792;DHT22;4432;50.890;4.744;2023-04-06T03:23:19;3.50;99.90
8792;DHT22;4432;50.890;4.744;2023-04-06T03:25:46;3.50;99.90
8792;DHT22;4432;50.890;4.744;2023-04-06T03:28:12;3.60;99.90
8792;DHT22;4432;50.890;4.744;2023-04-06T03:30:38;3.60;99.90
8792;DHT22;4432;50.890;4.744;2023-04-06T03:33:04;3.60;99.90
8792;DHT22;4432;50.890;4.744;2023-04-06T03:35:30;3.60;99.90
8792;DHT22;4432;50.890;4.744;2023-04-06T03:37:55;3.60;99.90
8792;DHT22;4432;50.890;4.744;2023-04-06T03:40:21;3.70;99.90
8792;DHT22;4432;50.890;4.744;2023-04-06T03:42:47;3.70;99.90
8792;DHT22;4432;50.890;4.744;2023-04-06T03:45:13;3.80;99.90
8792;DHT22;4432;50.890;4.744;2023-04-06T03:47:39;3.90;99.90
8792;DHT22;4432;50.890;4.744;2023-04-06T03:50:05;4.00;99.90
8792;DHT22;4432;50.890;4.744;2023-04-06T03:52:31;4.10;99.90
8792;DHT22;4432;50.890;4.744;2023-04-06T03:54:57;4.10;99.90
8792;DHT22;4432;50.890;4.744;2023-04-06T03:57:23;4.20;99.90
8792;DHT22;4432;50.890;4.744;2023-04-06T03:59:48;4.10;99.90
8792;DHT22;4432;50.890;4.744;2023-04-06T04:02:14;4.00;99.90
8792;DHT22;4432;50.890;4.744;2023-04-06T04:04:40;4.00;99.90
8792;DHT22;4432;50.890;4.744;2023-04-06T04:07:06;4.00;99.90
8792;DHT22;4432;50.890;4.744;2023-04-06T04:09:32;4.00;99.90
8792;DHT22;4432;50.890;4.744;2023-04-06T04:11:57;3.90;99.90
8792;DHT22;4432;50.890;4.744;2023-04-06T04:14:23;3.90;99.90
8792;DHT22;4432;50.890;4.744;2023-04-06T04:16:49;3.90;99.90
8792;DHT22;4432;50.890;4.744;2023-04-06T04:19:15;3.90;99.90
8792;DHT22;4432;50.890;4.744;2023-04-06T04:21:45;4.00;99.90
8792;DHT22;4432;50.890;4.744;2023-04-06T04:24:11;4.10;99.90
8792;DHT22;4432;50.890;4.744;2023-04-06T04:26:38;4.20;99.90
8792;DHT22;4432;50.890;4.744;2023-04-06T04:29:04;4.20;99.90
8792;DHT22;4432;50.890;4.744;2023-04-06T04:31:31;4.20;99.90
8792;DHT22;4432;50.890;4.744;2023-04-06T04:33:57;4.20;99.90
8792;DHT22;4432;50.890;4.744;2023-04-06T04:36:23;4.20;99.90
8792;DHT22;4432;50.890;4.744;2023-04-06T04:38:51;4.20;99.90
8792;DHT22;4432;50.890;4.744;2023-04-06T04:41:17;4.20;99.90
8792;DHT22;4432;50.890;4.744;2023-04-06T04:43:43;4.20;99.90
8792;DHT22;4432;50.890;4.744;2023-04-06T04:46:08;4.20;99.90
8792;DHT22;4432;50.890;4.744;2023-04-06T04:48:34;4.20;99.90
8792;DHT22;4432;50.890;4.744;2023-04-06T04:51:00;4.20;99.90
8792;DHT22;4432;50.890;4.744;2023-04-06T04:53:26;4.20;99.90
8792;DHT22;4432;50.890;4.744;2023-04-06T04:55:52;4.30;99.90
8792;DHT22;4432;50.890;4.744;2023-04-06T04:58:18;4.40;99.90
8792;DHT22;4432;50.890;4.744;2023-04-06T05:00:45;4.50;99.90
8792;DHT22;4432;50.890;4.744;2023-04-06T05:03:20;4.60;99.90
8792;DHT22;4432;50.890;4.744;2023-04-06T05:05:47;4.70;99.90
8792;DHT22;4432;50.890;4.744;2023-04-06T05:08:12;4.60;99.90
8792;DHT22;4432;50.890;4.744;2023-04-06T05:10:38;4.60;99.90
8792;DHT22;4432;50.890;4.744;2023-04-06T05:13:04;4.60;99.90
8792;DHT22;4432;50.890;4.744;2023-04-06T05:15:30;4.60;99.90
8792;DHT22;4432;50.890;4.744;2023-04-06T05:17:56;4.70;99.90
8792;DHT22;4432;50.890;4.744;2023-04-06T05:20:21;4.70;99.90
8792;DHT22;4432;50.890;4.744;2023-04-06T05:22:47;4.60;99.90
8792;DHT22;4432;50.890;4.744;2023-04-06T05:25:14;4.60;99.90
8792;DHT22;4432;50.890;4.744;2023-04-06T05:27:40;4.60;99.90
8792;DHT22;4432;50.890;4.744;2023-04-06T05:30:07;4.70;99.90
8792;DHT22;4432;50.890;4.744;2023-04-06T05:32:33;4.80;99.90
8792;DHT22;4432;50.890;4.744;2023-04-06T05:34:59;4.90;99.90
8792;DHT22;4432;50.890;4.744;2023-04-06T05:37:25;5.00;99.90
8792;DHT22;4432;50.890;4.744;2023-04-06T05:39:51;5.10;99.90
8792;DHT22;4432;50.890;4.744;2023-04-06T05:42:17;5.20;99.90
8792;DHT22;4432;50.890;4.744;2023-04-06T05:44:43;5.30;99.90
8792;DHT22;4432;50.890;4.744;2023-04-06T05:47:08;5.40;99.90
8792;DHT22;4432;50.890;4.744;2023-04-06T05:49:34;5.50;99.90
8792;DHT22;4432;50.890;4.744;2023-04-06T05:52:01;5.60;99.90
8792;DHT22;4432;50.890;4.744;2023-04-06T05:54:27;5.70;99.90
8792;DHT22;4432;50.890;4.744;2023-04-06T05:56:52;5.70;99.90
8792;DHT22;4432;50.890;4.744;2023-04-06T05:59:18;5.70;99.90
8792;DHT22;4432;50.890;4.744;2023-04-06T06:01:44;5.80;99.90
8792;DHT22;4432;50.890;4.744;2023-04-06T06:04:10;5.90;99.90
8792;DHT22;4432;50.890;4.744;2023-04-06T06:06:36;6.00;99.90
8792;DHT22;4432;50.890;4.744;2023-04-06T06:09:02;6.10;99.90
8792;DHT22;4432;50.890;4.744;2023-04-06T06:11:29;6.30;99.90
8792;DHT22;4432;50.890;4.744;2023-04-06T06:13:55;6.40;99.90
8792;DHT22;4432;50.890;4.744;2023-04-06T06:16:22;6.50;99.90
8792;DHT22;4432;50.890;4.744;2023-04-06T06:18:47;6.70;99.90
8792;DHT22;4432;50.890;4.744;2023-04-06T06:21:13;6.80;99.90
8792;DHT22;4432;50.890;4.744;2023-04-06T06:23:42;7.00;99.90
8792;DHT22;4432;50.890;4.744;2023-04-06T06:26:08;7.10;99.90
8792;DHT22;4432;50.890;4.744;2023-04-06T06:28:34;7.20;99.90
8792;DHT22;4432;50.890;4.744;2023-04-06T06:30:59;7.30;99.90
8792;DHT22;4432;50.890;4.744;2023-04-06T06:33:26;7.40;99.90
8792;DHT22;4432;50.890;4.744;2023-04-06T06:35:52;7.40;99.90
8792;DHT22;4432;50.890;4.744;2023-04-06T06:38:18;7.50;99.90
8792;DHT22;4432;50.890;4.744;2023-04-06T06:40:45;7.60;99.90
8792;DHT22;4432;50.890;4.744;2023-04-06T06:43:11;7.70;99.90
8792;DHT22;4432;50.890;4.744;2023-04-06T06:45:37;7.70;99.90
8792;DHT22;4432;50.890;4.744;2023-04-06T06:48:03;7.80;99.90
8792;DHT22;4432;50.890;4.744;2023-04-06T06:50:28;7.80;99.90
8792;DHT22;4432;50.890;4.744;2023-04-06T06:52:54;7.80;99.90
8792;DHT22;4432;50.890;4.744;2023-04-06T06:55:20;7.80;99.90
8792;DHT22;4432;50.890;4.744;2023-04-06T06:57:46;7.80;99.90
8792;DHT22;4432;50.890;4.744;2023-04-06T07:00:13;7.90;99.90
8792;DHT22;4432;50.890;4.744;2023-04-06T07:02:39;7.90;99.90
8792;DHT22;4432;50.890;4.744;2023-04-06T07:05:05;7.90;99.90
8792;DHT22;4432;50.890;4.744;2023-04-06T07:07:34;7.80;99.90
8792;DHT22;4432;50.890;4.744;2023-04-06T07:10:00;7.90;99.90
8792;DHT22;4432;50.890;4.744;2023-04-06T07:12:27;7.90;99.90
8792;DHT22;4432;50.890;4.744;2023-04-06T07:14:52;7.80;99.90
8792;DHT22;4432;50.890;4.744;2023-04-06T07:17:18;7.90;99.90
8792;DHT22;4432;50.890;4.744;2023-04-06T07:19:44;7.90;99.90
8792;DHT22;4432;50.890;4.744;2023-04-06T07:22:11;8.00;99.90
8792;DHT22;4432;50.890;4.744;2023-04-06T07:24:37;8.10;99.90
8792;DHT22;4432;50.890;4.744;2023-04-06T07:27:03;8.10;99.90
8792;DHT22;4432;50.890;4.744;2023-04-06T07:29:29;8.20;99.90
8792;DHT22;4432;50.890;4.744;2023-04-06T07:31:55;8.20;99.90
8792;DHT22;4432;50.890;4.744;2023-04-06T07:34:21;8.20;99.90
8792;DHT22;4432;50.890;4.744;2023-04-06T07:36:47;8.20;99.90
8792;DHT22;4432;50.890;4.744;2023-04-06T07:39:13;8.10;99.90
8792;DHT22;4432;50.890;4.744;2023-04-06T07:41:40;8.10;99.90
8792;DHT22;4432;50.890;4.744;2023-04-06T07:44:05;8.00;99.90
8792;DHT22;4432;50.890;4.744;2023-04-06T07:46:31;8.00;99.90
8792;DHT22;4432;50.890;4.744;2023-04-06T07:48:59;8.00;99.90
8792;DHT22;4432;50.890;4.744;2023-04-06T07:51:24;8.00;99.90
8792;DHT22;4432;50.890;4.744;2023-04-06T07:53:51;8.00;99.90
8792;DHT22;4432;50.890;4.744;2023-04-06T07:56:17;8.10;99.90
8792;DHT22;4432;50.890;4.744;2023-04-06T07:58:43;8.10;99.90
8792;DHT22;4432;50.890;4.744;2023-04-06T08:01:09;8.10;99.90
8792;DHT22;4432;50.890;4.744;2023-04-06T08:03:35;8.20;99.90
8792;DHT22;4432;50.890;4.744;2023-04-06T08:06:02;8.30;99.90
8792;DHT22;4432;50.890;4.744;2023-04-06T08:08:28;8.40;99.90
8792;DHT22;4432;50.890;4.744;2023-04-06T08:10:54;8.50;99.90
8792;DHT22;4432;50.890;4.744;2023-04-06T08:13:20;8.40;99.90
8792;DHT22;4432;50.890;4.744;2023-04-06T08:15:46;8.50;99.90
8792;DHT22;4432;50.890;4.744;2023-04-06T08:18:12;8.70;99.90
8792;DHT22;4432;50.890;4.744;2023-04-06T08:20:39;8.60;99.90
8792;DHT22;4432;50.890;4.744;2023-04-06T08:23:05;8.60;99.90
8792;DHT22;4432;50.890;4.744;2023-04-06T08:25:34;8.60;99.90
8792;DHT22;4432;50.890;4.744;2023-04-06T08:28:01;8.70;99.90
8792;DHT22;4432;50.890;4.744;2023-04-06T08:30:27;8.60;99.90
8792;DHT22;4432;50.890;4.744;2023-04-06T08:32:52;8.50;99.90
8792;DHT22;4432;50.890;4.744;2023-04-06T08:35:18;8.60;99.90
8792;DHT22;4432;50.890;4.744;2023-04-06T08:37:44;8.70;99.90
8792;DHT22;4432;50.890;4.744;2023-04-06T08:40:11;8.70;99.90
8792;DHT22;4432;50.890;4.744;2023-04-06T08:42:40;8.70;99.90
8792;DHT22;4432;50.890;4.744;2023-04-06T08:45:08;8.60;99.90
8792;DHT22;4432;50.890;4.744;2023-04-06T08:47:36;8.60;99.90
8792;DHT22;4432;50.890;4.744;2023-04-06T08:50:04;8.60;99.90
8792;DHT22;4432;50.890;4.744;2023-04-06T08:52:32;8.80;99.90
8792;DHT22;4432;50.890;4.744;2023-04-06T08:54:58;8.80;99.90
8792;DHT22;4432;50.890;4.744;2023-04-06T08:57:24;8.60;99.90
8792;DHT22;4432;50.890;4.744;2023-04-06T08:59:51;8.60;99.90
8792;DHT22;4432;50.890;4.744;2023-04-06T09:02:18;8.80;99.90
8792;DHT22;4432;50.890;4.744;2023-04-06T09:04:48;8.80;99.90
8792;DHT22;4432;50.890;4.744;2023-04-06T09:07:15;9.00;99.90
8792;DHT22;4432;50.890;4.744;2023-04-06T09:09:42;9.00;99.90
8792;DHT22;4432;50.890;4.744;2023-04-06T09:12:30;9.10;99.90
8792;DHT22;4432;50.890;4.744;2023-04-06T09:14:56;9.20;99.90
8792;DHT22;4432;50.890;4.744;2023-04-06T09:17:27;9.20;99.90
8792;DHT22;4432;50.890;4.744;2023-04-06T09:19:54;9.20;99.90
8792;DHT22;4432;50.890;4.744;2023-04-06T09:22:20;9.10;99.90
8792;DHT22;4432;50.890;4.744;2023-04-06T09:24:51;9.00;99.90
8792;DHT22;4432;50.890;4.744;2023-04-06T09:27:19;9.10;99.90
8792;DHT22;4432;50.890;4.744;2023-04-06T09:30:06;9.00;99.90
8792;DHT22;4432;50.890;4.744;2023-04-06T09:32:43;8.90;99.90
8792;DHT22;4432;50.890;4.744;2023-04-06T09:35:09;9.00;99.90
8792;DHT22;4432;50.890;4.744;2023-04-06T09:37:35;9.30;99.90
8792;DHT22;4432;50.890;4.744;2023-04-06T09:40:05;9.30;99.90
8792;DHT22;4432;50.890;4.744;2023-04-06T09:42:31;9.30;99.90
8792;DHT22;4432;50.890;4.744;2023-04-06T09:44:57;9.50;99.90
8792;DHT22;4432;50.890;4.744;2023-04-06T09:47:24;9.70;99.90
8792;DHT22;4432;50.890;4.744;2023-04-06T09:49:57;9.70;99.90
8792;DHT22;4432;50.890;4.744;2023-04-06T09:52:30;9.40;99.90
8792;DHT22;4432;50.890;4.744;2023-04-06T09:55:01;9.30;99.90
8792;DHT22;4432;50.890;4.744;2023-04-06T10:00:06;9.20;99.90
8792;DHT22;4432;50.890;4.744;2023-04-06T10:02:49;9.10;99.90
8792;DHT22;4432;50.890;4.744;2023-04-06T10:07:59;9.00;99.90
8792;DHT22;4432;50.890;4.744;2023-04-06T10:10:28;9.10;99.90
8792;DHT22;4432;50.890;4.744;2023-04-06T10:12:54;9.30;99.90
8792;DHT22;4432;50.890;4.744;2023-04-06T10:15:21;9.30;99.90
8792;DHT22;4432;50.890;4.744;2023-04-06T10:17:47;9.20;99.90
8792;DHT22;4432;50.890;4.744;2023-04-06T10:20:27;9.30;99.90
8792;DHT22;4432;50.890;4.744;2023-04-06T10:23:19;9.20;99.90
8792;DHT22;4432;50.890;4.744;2023-04-06T10:25:54;9.10;99.90
8792;DHT22;4432;50.890;4.744;2023-04-06T10:28:20;9.10;99.90
8792;DHT22;4432;50.890;4.744;2023-04-06T10:30:46;9.10;99.90
8792;DHT22;4432;50.890;4.744;2023-04-06T10:33:17;9.10;99.90
8792;DHT22;4432;50.890;4.744;2023-04-06T10:35:44;9.30;99.90
8792;DHT22;4432;50.890;4.744;2023-04-06T10:38:10;9.10;99.90
8792;DHT22;4432;50.890;4.744;2023-04-06T10:40:39;9.20;99.90
8792;DHT22;4432;50.890;4.744;2023-04-06T10:43:13;9.20;99.90
8792;DHT22;4432;50.890;4.744;2023-04-06T10:45:40;9.40;99.90
8792;DHT22;4432;50.890;4.744;2023-04-06T10:48:16;9.30;99.90
8792;DHT22;4432;50.890;4.744;2023-04-06T10:50:50;9.40;99.90
8792;DHT22;4432;50.890;4.744;2023-04-06T10:53:24;9.40;99.90
8792;DHT22;4432;50.890;4.744;2023-04-06T10:55:51;9.40;99.90
8792;DHT22;4432;50.890;4.744;2023-04-06T10:58:18;9.30;99.90
8792;DHT22;4432;50.890;4.744;2023-04-06T11:00:45;9.00;99.90
8792;DHT22;4432;50.890;4.744;2023-04-06T11:03:11;9.20;99.90
8792;DHT22;4432;50.890;4.744;2023-04-06T11:05:37;9.20;99.90
8792;DHT22;4432;50.890;4.744;2023-04-06T11:08:03;9.30;99.90
8792;DHT22;4432;50.890;4.744;2023-04-06T11:10:29;9.20;99.90
8792;DHT22;4432;50.890;4.744;2023-04-06T11:12:56;9.20;99.90
8792;DHT22;4432;50.890;4.744;2023-04-06T11:15:22;9.30;99.90
8792;DHT22;4432;50.890;4.744;2023-04-06T11:17:49;9.40;99.90
8792;DHT22;4432;50.890;4.744;2023-04-06T11:20:15;9.30;99.90
8792;DHT22;4432;50.890;4.744;2023-04-06T11:22:53;9.60;99.90
8792;DHT22;4432;50.890;4.744;2023-04-06T11:25:19;10.00;99.90
8792;DHT22;4432;50.890;4.744;2023-04-06T11:27:48;9.90;99.90
8792;DHT22;4432;50.890;4.744;2023-04-06T11:30:14;9.80;99.90
8792;DHT22;4432;50.890;4.744;2023-04-06T11:32:45;9.80;99.90
8792;DHT22;4432;50.890;4.744;2023-04-06T11:35:21;9.90;99.90
8792;DHT22;4432;50.890;4.744;2023-04-06T11:37:51;9.80;99.90
8792;DHT22;4432;50.890;4.744;2023-04-06T11:40:23;9.70;99.90
8792;DHT22;4432;50.890;4.744;2023-04-06T11:42:56;9.70;99.90
8792;DHT22;4432;50.890;4.744;2023-04-06T11:45:22;9.60;99.90
8792;DHT22;4432;50.890;4.744;2023-04-06T11:47:59;9.60;99.90
8792;DHT22;4432;50.890;4.744;2023-04-06T11:50:32;9.70;99.90
8792;DHT22;4432;50.890;4.744;2023-04-06T11:53:00;9.50;99.90
8792;DHT22;4432;50.890;4.744;2023-04-06T11:55:26;9.40;99.90
8792;DHT22;4432;50.890;4.744;2023-04-06T11:57:52;9.50;99.90
8792;DHT22;4432;50.890;4.744;2023-04-06T12:00:18;9.60;99.90
8792;DHT22;4432;50.890;4.744;2023-04-06T12:02:48;9.60;99.90
8792;DHT22;4432;50.890;4.744;2023-04-06T12:05:14;9.50;99.90
8792;DHT22;4432;50.890;4.744;2023-04-06T12:07:40;9.40;99.90
8792;DHT22;4432;50.890;4.744;2023-04-06T12:10:06;9.40;99.90
8792;DHT22;4432;50.890;4.744;2023-04-06T12:12:32;9.50;99.90
8792;DHT22;4432;50.890;4.744;2023-04-06T12:14:58;9.50;99.90
8792;DHT22;4432;50.890;4.744;2023-04-06T12:17:24;9.40;99.90
8792;DHT22;4432;50.890;4.744;2023-04-06T12:19:50;9.40;99.90
8792;DHT22;4432;50.890;4.744;2023-04-06T12:22:17;9.60;99.90
8792;DHT22;4432;50.890;4.744;2023-04-06T12:24:43;9.50;99.90
8792;DHT22;4432;50.890;4.744;2023-04-06T12:27:09;9.40;99.90
8792;DHT22;4432;50.890;4.744;2023-04-06T12:29:37;9.60;99.90
8792;DHT22;4432;50.890;4.744;2023-04-06T12:32:03;9.50;99.90
8792;DHT22;4432;50.890;4.744;2023-04-06T12:34:29;9.40;99.90
8792;DHT22;4432;50.890;4.744;2023-04-06T12:36:55;9.60;99.90
8792;DHT22;4432;50.890;4.744;2023-04-06T12:39:21;9.60;99.90
8792;DHT22;4432;50.890;4.744;2023-04-06T12:41:48;9.70;99.90
8792;DHT22;4432;50.890;4.744;2023-04-06T12:44:13;9.80;99.90
8792;DHT22;4432;50.890;4.744;2023-04-06T12:46:39;10.10;99.90
8792;DHT22;4432;50.890;4.744;2023-04-06T12:49:06;10.20;99.90
8792;DHT22;4432;50.890;4.744;2023-04-06T12:51:31;10.00;99.90
8792;DHT22;4432;50.890;4.744;2023-04-06T12:53:57;9.90;99.90
8792;DHT22;4432;50.890;4.744;2023-04-06T12:56:23;9.90;99.90
8792;DHT22;4432;50.890;4.744;2023-04-06T12:58:51;9.70;99.90
8792;DHT22;4432;50.890;4.744;2023-04-06T13:01:17;9.60;99.90
8792;DHT22;4432;50.890;4.744;2023-04-06T13:03:44;9.80;99.90
8792;DHT22;4432;50.890;4.744;2023-04-06T13:06:10;9.90;99.90
8792;DHT22;4432;50.890;4.744;2023-04-06T13:08:37;10.00;99.90
8792;DHT22;4432;50.890;4.744;2023-04-06T13:11:04;10.00;99.90
8792;DHT22;4432;50.890;4.744;2023-04-06T13:13:30;10.10;99.90
8792;DHT22;4432;50.890;4.744;2023-04-06T13:16:07;10.10;99.90
8792;DHT22;4432;50.890;4.744;2023-04-06T13:18:34;9.90;99.90
8792;DHT22;4432;50.890;4.744;2023-04-06T13:21:02;10.00;99.90
8792;DHT22;4432;50.890;4.744;2023-04-06T13:23:28;9.80;99.90
8792;DHT22;4432;50.890;4.744;2023-04-06T13:26:04;9.60;99.90
8792;DHT22;4432;50.890;4.744;2023-04-06T13:28:32;9.50;99.90
8792;DHT22;4432;50.890;4.744;2023-04-06T13:30:59;9.60;99.90
8792;DHT22;4432;50.890;4.744;2023-04-06T13:33:29;9.70;99.90
8792;DHT22;4432;50.890;4.744;2023-04-06T13:35:55;9.80;99.90
8792;DHT22;4432;50.890;4.744;2023-04-06T13:38:21;9.70;99.90
8792;DHT22;4432;50.890;4.744;2023-04-06T13:40:49;9.40;99.90
8792;DHT22;4432;50.890;4.744;2023-04-06T13:43:15;9.40;99.90
8792;DHT22;4432;50.890;4.744;2023-04-06T13:45:41;9.30;99.90
8792;DHT22;4432;50.890;4.744;2023-04-06T13:48:06;9.30;99.90
8792;DHT22;4432;50.890;4.744;2023-04-06T13:50:33;9.30;99.90
8792;DHT22;4432;50.890;4.744;2023-04-06T13:52:59;9.30;99.90
8792;DHT22;4432;50.890;4.744;2023-04-06T13:55:25;9.40;99.90
8792;DHT22;4432;50.890;4.744;2023-04-06T13:57:51;9.30;99.90
8792;DHT22;4432;50.890;4.744;2023-04-06T14:00:17;9.30;99.90
8792;DHT22;4432;50.890;4.744;2023-04-06T14:02:43;9.40;99.90
8792;DHT22;4432;50.890;4.744;2023-04-06T14:05:10;9.50;99.90
8792;DHT22;4432;50.890;4.744;2023-04-06T14:07:37;9.50;99.90
8792;DHT22;4432;50.890;4.744;2023-04-06T14:10:03;9.60;99.90
8792;DHT22;4432;50.890;4.744;2023-04-06T14:12:29;9.60;99.90
8792;DHT22;4432;50.890;4.744;2023-04-06T14:14:55;9.70;99.90
8792;DHT22;4432;50.890;4.744;2023-04-06T14:17:22;9.50;99.90
8792;DHT22;4432;50.890;4.744;2023-04-06T14:19:47;9.60;99.90
8792;DHT22;4432;50.890;4.744;2023-04-06T14:22:14;9.50;99.90
8792;DHT22;4432;50.890;4.744;2023-04-06T14:24:40;9.60;99.90
8792;DHT22;4432;50.890;4.744;2023-04-06T14:27:06;9.60;99.90
8792;DHT22;4432;50.890;4.744;2023-04-06T14:29:32;9.70;99.90
8792;DHT22;4432;50.890;4.744;2023-04-06T14:31:57;9.70;99.90
8792;DHT22;4432;50.890;4.744;2023-04-06T14:34:26;9.70;99.90
8792;DHT22;4432;50.890;4.744;2023-04-06T14:36:52;9.70;99.90
8792;DHT22;4432;50.890;4.744;2023-04-06T14:39:18;9.70;99.90
8792;DHT22;4432;50.890;4.744;2023-04-06T14:41:44;9.70;99.90
8792;DHT22;4432;50.890;4.744;2023-04-06T14:44:10;9.60;99.90
8792;DHT22;4432;50.890;4.744;2023-04-06T14:46:37;9.60;99.90
8792;DHT22;4432;50.890;4.744;2023-04-06T14:49:03;9.50;99.90
8792;DHT22;4432;50.890;4.744;2023-04-06T14:51:29;9.60;99.90
8792;DHT22;4432;50.890;4.744;2023-04-06T14:53:56;9.60;99.90
8792;DHT22;4432;50.890;4.744;2023-04-06T14:56:22;9.40;99.90
8792;DHT22;4432;50.890;4.744;2023-04-06T14:58:49;9.40;99.90
8792;DHT22;4432;50.890;4.744;2023-04-06T15:01:18;9.40;99.90
8792;DHT22;4432;50.890;4.744;2023-04-06T15:03:43;9.40;99.90
8792;DHT22;4432;50.890;4.744;2023-04-06T15:06:14;9.40;99.90
8792;DHT22;4432;50.890;4.744;2023-04-06T15:08:43;9.40;99.90
8792;DHT22;4432;50.890;4.744;2023-04-06T15:11:10;9.50;99.90
8792;DHT22;4432;50.890;4.744;2023-04-06T15:13:37;9.60;99.90
8792;DHT22;4432;50.890;4.744;2023-04-06T15:16:04;9.70;99.90
8792;DHT22;4432;50.890;4.744;2023-04-06T15:18:29;9.80;99.90
8792;DHT22;4432;50.890;4.744;2023-04-06T15:20:55;9.80;99.90
8792;DHT22;4432;50.890;4.744;2023-04-06T15:23:21;9.80;99.90
8792;DHT22;4432;50.890;4.744;2023-04-06T15:25:47;9.80;99.90
8792;DHT22;4432;50.890;4.744;2023-04-06T15:28:13;9.80;99.90
8792;DHT22;4432;50.890;4.744;2023-04-06T15:30:39;9.90;99.90
8792;DHT22;4432;50.890;4.744;2023-04-06T15:33:07;9.90;99.90
8792;DHT22;4432;50.890;4.744;2023-04-06T15:35:33;10.00;99.90
8792;DHT22;4432;50.890;4.744;2023-04-06T15:38:04;10.10;99.90
8792;DHT22;4432;50.890;4.744;2023-04-06T15:40:30;10.00;99.90
8792;DHT22;4432;50.890;4.744;2023-04-06T15:42:55;10.00;99.90
8792;DHT22;4432;50.890;4.744;2023-04-06T15:45:21;9.90;99.90
8792;DHT22;4432;50.890;4.744;2023-04-06T15:47:47;10.00;99.90
8792;DHT22;4432;50.890;4.744;2023-04-06T15:50:13;10.00;99.90
8792;DHT22;4432;50.890;4.744;2023-04-06T15:52:39;10.00;99.90
8792;DHT22;4432;50.890;4.744;2023-04-06T15:55:06;10.00;99.90
8792;DHT22;4432;50.890;4.744;2023-04-06T15:57:32;10.10;99.90
8792;DHT22;4432;50.890;4.744;2023-04-06T15:59:58;10.20;99.90
8792;DHT22;4432;50.890;4.744;2023-04-06T16:02:24;10.30;99.90
8792;DHT22;4432;50.890;4.744;2023-04-06T16:04:58;10.30;99.90
8792;DHT22;4432;50.890;4.744;2023-04-06T16:07:27;10.50;99.90
8792;DHT22;4432;50.890;4.744;2023-04-06T16:09:53;10.40;99.90
8792;DHT22;4432;50.890;4.744;2023-04-06T16:12:19;10.40;99.90
8792;DHT22;4432;50.890;4.744;2023-04-06T16:14:46;10.30;99.90
8792;DHT22;4432;50.890;4.744;2023-04-06T16:17:12;10.30;99.90
8792;DHT22;4432;50.890;4.744;2023-04-06T16:19:38;10.30;99.90